sensor_id;sensor_type;location;lat;lon;timestamp;pressure;altitude;pressure_sealevel;temperature;humidity
18509;BME280;9383;50.928;12.116;2023-04-06T00:00:51;99244.25;;;0.58;81.22
18509;BME280;9383;50.928;12.116;2023-04-06T00:03:27;99228.50;;;0.49;80.99
18509;BME280;9383;50.928;12.116;2023-04-06T00:06:13;99237.25;;;0.52;80.68
18509;BME280;9383;50.928;12.116;2023-04-06T00:08:41;99232.03;;;0.51;80.59
18509;BME280;9383;50.928;12.116;2023-04-06T00:11:09;99239.81;;;0.49;81.72
18509;BME280;9383;50.928;12.116;2023-04-06T00:13:45;99238.94;;;0.49;82.03
18509;BME280;9383;50.928;12.116;2023-04-06T00:16:12;99230.22;;;0.47;81.53
18509;BME280;9383;50.928;12.116;2023-04-06T00:18:49;99233.69;;;0.46;82.24
18509;BME280;9383;50.928;12.116;2023-04-06T00:21:18;99228.47;;;0.46;81.70
18509;BME280;9383;50.928;12.116;2023-04-06T00:23:47;99228.44;;;0.44;81.52
18509;BME280;9383;50.928;12.116;2023-04-06T00:26:15;99231.06;;;0.43;82.18
18509;BME280;9383;50.928;12.116;2023-04-06T00:28:43;99234.53;;;0.41;82.22
18509;BME280;9383;50.928;12.116;2023-04-06T00:31:12;99231.03;;;0.41;82.07
18509;BME280;9383;50.928;12.116;2023-04-06T00:33:39;99232.78;;;0.40;82.26
18509;BME280;9383;50.928;12.116;2023-04-06T00:36:06;99227.53;;;0.39;82.43
18509;BME280;9383;50.928;12.116;2023-04-06T00:38:36;99231.00;;;0.38;82.33
18509;BME280;9383;50.928;12.116;2023-04-06T00:41:04;99234.47;;;0.37;82.26
18509;BME280;9383;50.928;12.116;2023-04-06T00:43:31;99235.31;;;0.37;82.76
18509;BME280;9383;50.928;12.116;2023-04-06T00:45:59;99230.13;;;0.37;82.40
18509;BME280;9383;50.928;12.116;2023-04-06T00:48:26;99230.13;;;0.37;82.65
18509;BME280;9383;50.928;12.116;2023-04-06T00:50:58;99224.91;;;0.37;82.84
18509;BME280;9383;50.928;12.116;2023-04-06T00:53:28;99218.81;;;0.37;83.27
18509;BME280;9383;50.928;12.116;2023-04-06T00:55:55;99218.84;;;0.38;83.75
18509;BME280;9383;50.928;12.116;2023-04-06T00:58:24;99221.47;;;0.38;83.80
18509;BME280;9383;50.928;12.116;2023-04-06T01:00:51;99214.47;;;0.37;83.89
18509;BME280;9383;50.928;12.116;2023-04-06T01:03:18;99211.00;;;0.37;83.81
18509;BME280;9383;50.928;12.116;2023-04-06T01:05:48;99210.13;;;0.36;83.88
18509;BME280;9383;50.928;12.116;2023-04-06T01:08:15;99216.19;;;0.35;84.09
18509;BME280;9383;50.928;12.116;2023-04-06T01:10:45;99204.91;;;0.35;84.07
18509;BME280;9383;50.928;12.116;2023-04-06T01:13:17;99213.56;;;0.35;83.71
18509;BME280;9383;50.928;12.116;2023-04-06T01:15:44;99209.22;;;0.34;84.15
18509;BME280;9383;50.928;12.116;2023-04-06T01:18:12;99204.88;;;0.33;84.25
18509;BME280;9383;50.928;12.116;2023-04-06T01:20:41;99202.28;;;0.35;85.07
18509;BME280;9383;50.928;12.116;2023-04-06T01:23:11;99204.00;;;0.34;85.22
18509;BME280;9383;50.928;12.116;2023-04-06T01:25:57;99209.22;;;0.34;85.14
18509;BME280;9383;50.928;12.116;2023-04-06T01:28:43;99204.00;;;0.34;84.81
18509;BME280;9383;50.928;12.116;2023-04-06T01:31:30;99204.91;;;0.35;85.39
18509;BME280;9383;50.928;12.116;2023-04-06T01:34:17;99210.13;;;0.35;84.82
18509;BME280;9383;50.928;12.116;2023-04-06T01:37:03;99199.69;;;0.35;85.40
18509;BME280;9383;50.928;12.116;2023-04-06T01:39:35;99203.19;;;0.37;84.73
18509;BME280;9383;50.928;12.116;2023-04-06T01:42:09;99202.28;;;0.36;85.07
18509;BME280;9383;50.928;12.116;2023-04-06T01:44:55;99207.50;;;0.36;85.64
18509;BME280;9383;50.928;12.116;2023-04-06T01:47:41;99197.97;;;0.37;85.83
18509;BME280;9383;50.928;12.116;2023-04-06T01:50:27;99199.72;;;0.38;85.70
18509;BME280;9383;50.928;12.116;2023-04-06T01:52:55;99200.59;;;0.38;86.13
18509;BME280;9383;50.928;12.116;2023-04-06T01:55:23;99198.81;;;0.37;86.04
18509;BME280;9383;50.928;12.116;2023-04-06T01:57:57;99198.84;;;0.39;85.24
18509;BME280;9383;50.928;12.116;2023-04-06T02:00:24;99201.38;;;0.31;85.79
18509;BME280;9383;50.928;12.116;2023-04-06T02:02:51;99194.50;;;0.38;86.22
18509;BME280;9383;50.928;12.116;2023-04-06T02:05:19;99191.88;;;0.38;85.61
18509;BME280;9383;50.928;12.116;2023-04-06T02:07:46;99196.25;;;0.39;86.00
18509;BME280;9383;50.928;12.116;2023-04-06T02:10:13;99192.78;;;0.38;85.92
18509;BME280;9383;50.928;12.116;2023-04-06T02:12:41;99190.16;;;0.38;86.36
18509;BME280;9383;50.928;12.116;2023-04-06T02:15:07;99186.66;;;0.38;86.12
18509;BME280;9383;50.928;12.116;2023-04-06T02:17:34;99185.78;;;0.37;85.91
18509;BME280;9383;50.928;12.116;2023-04-06T02:20:00;99191.00;;;0.36;86.77
18509;BME280;9383;50.928;12.116;2023-04-06T02:22:27;99184.03;;;0.35;85.94
18509;BME280;9383;50.928;12.116;2023-04-06T02:24:54;99191.84;;;0.33;86.39
18509;BME280;9383;50.928;12.116;2023-04-06T02:27:20;99190.09;;;0.32;86.45
18509;BME280;9383;50.928;12.116;2023-04-06T02:29:47;99182.22;;;0.31;85.90
18509;BME280;9383;50.928;12.116;2023-04-06T02:32:13;99176.13;;;0.28;86.22
18509;BME280;9383;50.928;12.116;2023-04-06T02:34:40;99181.34;;;0.27;86.38
18509;BME280;9383;50.928;12.116;2023-04-06T02:37:07;99184.81;;;0.26;85.94
18509;BME280;9383;50.928;12.116;2023-04-06T02:39:34;99189.13;;;0.22;86.82
18509;BME280;9383;50.928;12.116;2023-04-06T02:42:00;99176.06;;;0.21;86.18
18509;BME280;9383;50.928;12.116;2023-04-06T02:44:27;99189.94;;;0.20;86.17
18509;BME280;9383;50.928;12.116;2023-04-06T02:46:55;99183.84;;;0.18;86.64
18509;BME280;9383;50.928;12.116;2023-04-06T02:49:21;99178.59;;;0.16;86.65
18509;BME280;9383;50.928;12.116;2023-04-06T02:51:48;99185.53;;;0.14;86.64
18509;BME280;9383;50.928;12.116;2023-04-06T02:54:14;99182.91;;;0.12;86.13
18509;BME280;9383;50.928;12.116;2023-04-06T02:56:42;99188.13;;;0.11;86.37
18509;BME280;9383;50.928;12.116;2023-04-06T02:59:09;99187.22;;;0.07;86.89
18509;BME280;9383;50.928;12.116;2023-04-06T03:01:36;99185.47;;;0.06;86.22
18509;BME280;9383;50.928;12.116;2023-04-06T03:04:03;99185.44;;;0.03;86.02
18509;BME280;9383;50.928;12.116;2023-04-06T03:06:29;99188.88;;;0.01;86.06
18509;BME280;9383;50.928;12.116;2023-04-06T03:08:56;99195.78;;;-0.03;86.34
18509;BME280;9383;50.928;12.116;2023-04-06T03:11:23;99192.25;;;-0.08;86.24
18509;BME280;9383;50.928;12.116;2023-04-06T03:13:49;99192.19;;;-0.13;85.62
18509;BME280;9383;50.928;12.116;2023-04-06T03:16:16;99198.22;;;-0.16;86.21
18509;BME280;9383;50.928;12.116;2023-04-06T03:19:02;99194.69;;;-0.21;85.94
18509;BME280;9383;50.928;12.116;2023-04-06T03:21:29;99196.41;;;-0.23;86.19
18509;BME280;9383;50.928;12.116;2023-04-06T03:23:58;99198.13;;;-0.25;85.92
18509;BME280;9383;50.928;12.116;2023-04-06T03:26:25;99205.03;;;-0.27;85.87
18509;BME280;9383;50.928;12.116;2023-04-06T03:28:51;99190.25;;;-0.30;86.26
18509;BME280;9383;50.928;12.116;2023-04-06T03:31:18;99203.25;;;-0.31;86.12
18509;BME280;9383;50.928;12.116;2023-04-06T03:33:44;99202.34;;;-0.33;85.86
18509;BME280;9383;50.928;12.116;2023-04-06T03:36:11;99191.03;;;-0.35;85.81
18509;BME280;9383;50.928;12.116;2023-04-06T03:38:37;99197.97;;;-0.37;86.41
18509;BME280;9383;50.928;12.116;2023-04-06T03:41:04;99200.53;;;-0.39;86.39
18509;BME280;9383;50.928;12.116;2023-04-06T03:43:30;99199.66;;;-0.41;86.48
18509;BME280;9383;50.928;12.116;2023-04-06T03:45:57;99210.94;;;-0.42;85.76
18509;BME280;9383;50.928;12.116;2023-04-06T03:48:24;99201.38;;;-0.43;85.90
18509;BME280;9383;50.928;12.116;2023-04-06T03:50:51;99206.50;;;-0.46;86.42
18509;BME280;9383;50.928;12.116;2023-04-06T03:53:17;99209.09;;;-0.48;86.22
18509;BME280;9383;50.928;12.116;2023-04-06T03:55:44;99220.38;;;-0.49;86.25
18509;BME280;9383;50.928;12.116;2023-04-06T03:58:10;99209.91;;;-0.52;86.42
18509;BME280;9383;50.928;12.116;2023-04-06T04:00:38;99222.03;;;-0.54;86.33
18509;BME280;9383;50.928;12.116;2023-04-06T04:03:06;99215.06;;;-0.55;86.42
18509;BME280;9383;50.928;12.116;2023-04-06T04:05:33;99208.13;;;-0.56;86.77
18509;BME280;9383;50.928;12.116;2023-04-06T04:07:59;99207.25;;;-0.57;87.42
18509;BME280;9383;50.928;12.116;2023-04-06T04:10:26;99210.69;;;-0.58;86.90
18509;BME280;9383;50.928;12.116;2023-04-06T04:12:52;99213.28;;;-0.59;87.06
18509;BME280;9383;50.928;12.116;2023-04-06T04:15:19;99206.34;;;-0.60;87.21
18509;BME280;9383;50.928;12.116;2023-04-06T04:17:45;99213.25;;;-0.62;87.60
18509;BME280;9383;50.928;12.116;2023-04-06T04:20:16;99221.88;;;-0.63;87.17
18509;BME280;9383;50.928;12.116;2023-04-06T04:22:42;99207.97;;;-0.65;87.36
18509;BME280;9383;50.928;12.116;2023-04-06T04:25:13;99187.78;;;-0.82;87.24
18509;BME280;9383;50.928;12.116;2023-04-06T04:27:40;99213.97;;;-0.71;87.57
18509;BME280;9383;50.928;12.116;2023-04-06T04:30:15;99220.03;;;-0.74;86.80
18509;BME280;9383;50.928;12.116;2023-04-06T04:32:43;99220.81;;;-0.78;86.73
18509;BME280;9383;50.928;12.116;2023-04-06T04:35:11;99219.00;;;-0.82;86.51
18509;BME280;9383;50.928;12.116;2023-04-06T04:37:41;99216.38;;;-0.85;87.02
18509;BME280;9383;50.928;12.116;2023-04-06T04:40:09;99231.91;;;-0.90;87.04
18509;BME280;9383;50.928;12.116;2023-04-06T04:42:36;99225.78;;;-0.93;87.09
18509;BME280;9383;50.928;12.116;2023-04-06T04:45:02;99229.19;;;-0.96;86.59
18509;BME280;9383;50.928;12.116;2023-04-06T04:47:29;99232.66;;;-0.98;86.79
18509;BME280;9383;50.928;12.116;2023-04-06T04:49:56;99228.22;;;-1.03;86.92
18509;BME280;9383;50.928;12.116;2023-04-06T04:52:22;99230.81;;;-1.04;87.04
18509;BME280;9383;50.928;12.116;2023-04-06T04:54:49;99225.53;;;-1.09;87.47
18509;BME280;9383;50.928;12.116;2023-04-06T04:57:16;99227.25;;;-1.09;87.23
18509;BME280;9383;50.928;12.116;2023-04-06T04:59:43;99231.53;;;-1.13;86.75
18509;BME280;9383;50.928;12.116;2023-04-06T05:02:09;99229.75;;;-1.14;87.21
18509;BME280;9383;50.928;12.116;2023-04-06T05:04:36;99230.59;;;-1.17;87.03
18509;BME280;9383;50.928;12.116;2023-04-06T05:07:07;99231.47;;;-1.18;87.00
18509;BME280;9383;50.928;12.116;2023-04-06T05:09:34;99228.81;;;-1.19;86.95
18509;BME280;9383;50.928;12.116;2023-04-06T05:12:01;99227.03;;;-1.22;86.95
18509;BME280;9383;50.928;12.116;2023-04-06T05:14:28;99233.09;;;-1.23;87.23
18509;BME280;9383;50.928;12.116;2023-04-06T05:16:54;99238.28;;;-1.24;86.93
18509;BME280;9383;50.928;12.116;2023-04-06T05:19:22;99237.38;;;-1.25;86.97
18509;BME280;9383;50.928;12.116;2023-04-06T05:21:48;99231.34;;;-1.25;87.49
18509;BME280;9383;50.928;12.116;2023-04-06T05:24:15;99239.13;;;-1.25;87.34
18509;BME280;9383;50.928;12.116;2023-04-06T05:26:41;99233.06;;;-1.24;87.39
18509;BME280;9383;50.928;12.116;2023-04-06T05:29:08;99245.22;;;-1.23;87.57
18509;BME280;9383;50.928;12.116;2023-04-06T05:31:35;99078.91;;;-2.19;87.51
18509;BME280;9383;50.928;12.116;2023-04-06T05:34:03;99244.44;;;-1.19;88.09
18509;BME280;9383;50.928;12.116;2023-04-06T05:36:30;99239.28;;;-1.16;88.23
18509;BME280;9383;50.928;12.116;2023-04-06T05:38:58;99246.31;;;-1.12;88.39
18509;BME280;9383;50.928;12.116;2023-04-06T05:41:25;99245.53;;;-1.05;88.68
18509;BME280;9383;50.928;12.116;2023-04-06T05:43:51;99247.38;;;-0.99;89.40
18509;BME280;9383;50.928;12.116;2023-04-06T05:46:19;99249.25;;;-0.90;89.62
18509;BME280;9383;50.928;12.116;2023-04-06T05:48:46;99249.44;;;-0.79;89.21
18509;BME280;9383;50.928;12.116;2023-04-06T05:51:13;99244.41;;;-0.65;89.00
18509;BME280;9383;50.928;12.116;2023-04-06T05:53:39;99244.59;;;-0.53;88.33
18509;BME280;9383;50.928;12.116;2023-04-06T05:56:06;99246.59;;;-0.35;86.28
18509;BME280;9383;50.928;12.116;2023-04-06T05:58:32;99239.88;;;-0.19;85.05
18509;BME280;9383;50.928;12.116;2023-04-06T06:01:02;99172.66;;;-0.48;83.77
18509;BME280;9383;50.928;12.116;2023-04-06T06:03:29;99243.78;;;0.16;81.75
18509;BME280;9383;50.928;12.116;2023-04-06T06:06:05;99237.91;;;0.33;80.83
18509;BME280;9383;50.928;12.116;2023-04-06T06:08:32;99237.16;;;0.45;80.25
18509;BME280;9383;50.928;12.116;2023-04-06T06:10:58;99244.25;;;0.58;79.73
18509;BME280;9383;50.928;12.116;2023-04-06T06:13:25;99241.75;;;0.69;79.36
18509;BME280;9383;50.928;12.116;2023-04-06T06:15:51;99248.84;;;0.84;77.06
18509;BME280;9383;50.928;12.116;2023-04-06T06:18:18;99247.25;;;0.98;75.77
18509;BME280;9383;50.928;12.116;2023-04-06T06:20:44;99248.19;;;1.07;75.77
18509;BME280;9383;50.928;12.116;2023-04-06T06:23:11;99245.69;;;1.22;75.08
18509;BME280;9383;50.928;12.116;2023-04-06T06:25:37;99247.56;;;1.37;72.92
18509;BME280;9383;50.928;12.116;2023-04-06T06:28:04;99244.16;;;1.49;73.39
18509;BME280;9383;50.928;12.116;2023-04-06T06:30:30;99243.38;;;1.63;73.26
18509;BME280;9383;50.928;12.116;2023-04-06T06:32:57;99246.06;;;1.75;73.72
18509;BME280;9383;50.928;12.116;2023-04-06T06:35:23;99248.75;;;1.89;71.86
18509;BME280;9383;50.928;12.116;2023-04-06T06:37:50;99241.81;;;2.02;70.55
18509;BME280;9383;50.928;12.116;2023-04-06T06:40:17;99244.50;;;2.15;70.99
18509;BME280;9383;50.928;12.116;2023-04-06T06:42:44;99245.44;;;2.29;69.19
18509;BME280;9383;50.928;12.116;2023-04-06T06:45:10;99239.38;;;2.41;68.17
18509;BME280;9383;50.928;12.116;2023-04-06T06:47:37;99240.28;;;2.54;65.55
18509;BME280;9383;50.928;12.116;2023-04-06T06:50:03;99239.41;;;2.64;66.29
18509;BME280;9383;50.928;12.116;2023-04-06T06:52:30;99244.69;;;2.78;64.46
18509;BME280;9383;50.928;12.116;2023-04-06T06:54:56;99245.59;;;2.90;61.83
18509;BME280;9383;50.928;12.116;2023-04-06T06:57:23;99204.56;;;2.76;61.71
18509;BME280;9383;50.928;12.116;2023-04-06T06:59:49;99249.97;;;3.11;60.10
18509;BME280;9383;50.928;12.116;2023-04-06T07:02:17;99247.31;;;3.22;60.94
18509;BME280;9383;50.928;12.116;2023-04-06T07:04:43;99248.22;;;3.32;59.18
18509;BME280;9383;50.928;12.116;2023-04-06T07:07:09;99244.72;;;3.37;57.33
18509;BME280;9383;50.928;12.116;2023-04-06T07:09:36;99252.56;;;3.50;59.99
18509;BME280;9383;50.928;12.116;2023-04-06T07:12:03;99248.19;;;3.61;58.65
18509;BME280;9383;50.928;12.116;2023-04-06T07:14:30;99246.38;;;3.77;59.01
18509;BME280;9383;50.928;12.116;2023-04-06T07:16:57;99247.25;;;3.87;55.79
18509;BME280;9383;50.928;12.116;2023-04-06T07:19:24;99241.97;;;3.98;56.58
18509;BME280;9383;50.928;12.116;2023-04-06T07:21:50;99245.44;;;4.10;54.64
18509;BME280;9383;50.928;12.116;2023-04-06T07:24:16;99249.78;;;4.15;52.71
18509;BME280;9383;50.928;12.116;2023-04-06T07:26:43;99254.16;;;4.18;52.86
18509;BME280;9383;50.928;12.116;2023-04-06T07:29:10;99238.34;;;4.27;53.53
18509;BME280;9383;50.928;12.116;2023-04-06T07:31:36;99245.31;;;4.38;53.52
18509;BME280;9383;50.928;12.116;2023-04-06T07:34:02;99246.13;;;4.50;55.28
18509;BME280;9383;50.928;12.116;2023-04-06T07:36:49;99238.19;;;4.63;53.07
18509;BME280;9383;50.928;12.116;2023-04-06T07:39:16;99240.72;;;4.77;51.59
18509;BME280;9383;50.928;12.116;2023-04-06T07:41:55;99247.66;;;4.87;52.04
18509;BME280;9383;50.928;12.116;2023-04-06T07:44:21;99246.72;;;4.98;51.57
18509;BME280;9383;50.928;12.116;2023-04-06T07:46:48;99251.91;;;5.07;51.13
18509;BME280;9383;50.928;12.116;2023-04-06T07:49:14;99247.41;;;5.20;51.01
18509;BME280;9383;50.928;12.116;2023-04-06T07:51:41;99241.19;;;5.32;51.10
18509;BME280;9383;50.928;12.116;2023-04-06T07:54:08;99245.50;;;5.41;50.06
18509;BME280;9383;50.928;12.116;2023-04-06T07:56:34;99239.19;;;5.56;51.04
18509;BME280;9383;50.928;12.116;2023-04-06T07:59:01;99240.81;;;5.71;50.08
18509;BME280;9383;50.928;12.116;2023-04-06T08:01:28;99238.09;;;5.78;48.67
18509;BME280;9383;50.928;12.116;2023-04-06T08:03:57;99242.34;;;5.92;48.57
18509;BME280;9383;50.928;12.116;2023-04-06T08:06:24;99238.75;;;6.02;48.97
18509;BME280;9383;50.928;12.116;2023-04-06T08:08:51;99236.81;;;6.17;48.00
18509;BME280;9383;50.928;12.116;2023-04-06T08:11:17;99234.28;;;6.11;46.98
18509;BME280;9383;50.928;12.116;2023-04-06T08:13:44;99239.50;;;6.15;47.58
18509;BME280;9383;50.928;12.116;2023-04-06T08:16:11;99231.41;;;6.29;48.93
18509;BME280;9383;50.928;12.116;2023-04-06T08:18:37;99236.38;;;6.51;48.32
18509;BME280;9383;50.928;12.116;2023-04-06T08:21:04;99239.69;;;6.66;49.08
18509;BME280;9383;50.928;12.116;2023-04-06T08:23:31;99235.09;;;6.82;47.73
18509;BME280;9383;50.928;12.116;2023-04-06T08:25:58;99230.47;;;6.98;47.86
18509;BME280;9383;50.928;12.116;2023-04-06T08:28:24;99238.03;;;7.18;49.06
18509;BME280;9383;50.928;12.116;2023-04-06T08:30:51;99233.41;;;7.34;48.97
18509;BME280;9383;50.928;12.116;2023-04-06T08:33:17;99241.81;;;7.55;47.13
18509;BME280;9383;50.928;12.116;2023-04-06T08:35:44;99234.50;;;7.71;45.93
18509;BME280;9383;50.928;12.116;2023-04-06T08:38:10;99235.03;;;7.88;46.42
18509;BME280;9383;50.928;12.116;2023-04-06T08:40:39;99231.31;;;8.00;44.36
18509;BME280;9383;50.928;12.116;2023-04-06T08:43:11;99215.13;;;8.18;45.19
18509;BME280;9383;50.928;12.116;2023-04-06T08:45:40;99229.91;;;8.25;41.91
18509;BME280;9383;50.928;12.116;2023-04-06T08:48:06;99229.66;;;8.37;42.30
18509;BME280;9383;50.928;12.116;2023-04-06T08:50:33;99212.47;;;8.60;44.07
18509;BME280;9383;50.928;12.116;2023-04-06T08:53:01;99222.56;;;8.82;42.72
18509;BME280;9383;50.928;12.116;2023-04-06T08:55:28;99221.38;;;8.94;40.14
18509;BME280;9383;50.928;12.116;2023-04-06T08:57:55;99215.63;;;9.14;42.42
18509;BME280;9383;50.928;12.116;2023-04-06T09:00:23;99222.22;;;9.32;41.93
18509;BME280;9383;50.928;12.116;2023-04-06T09:02:54;99221.13;;;9.41;41.19
18509;BME280;9383;50.928;12.116;2023-04-06T09:05:24;99222.69;;;9.50;38.66
18509;BME280;9383;50.928;12.116;2023-04-06T09:07:51;99221.44;;;9.63;38.27
18509;BME280;9383;50.928;12.116;2023-04-06T09:10:18;99216.53;;;9.48;33.42
18509;BME280;9383;50.928;12.116;2023-04-06T09:12:45;99217.09;;;9.61;35.49
18509;BME280;9383;50.928;12.116;2023-04-06T09:15:19;99215.81;;;9.76;38.56
18509;BME280;9383;50.928;12.116;2023-04-06T09:17:46;99214.56;;;9.89;36.94
18509;BME280;9383;50.928;12.116;2023-04-06T09:20:13;99216.53;;;10.14;38.86
18509;BME280;9383;50.928;12.116;2023-04-06T09:22:40;99207.06;;;10.35;38.42
18509;BME280;9383;50.928;12.116;2023-04-06T09:25:09;99205.41;;;10.63;39.05
18509;BME280;9383;50.928;12.116;2023-04-06T09:27:37;99216.16;;;10.58;33.33
18509;BME280;9383;50.928;12.116;2023-04-06T09:30:09;99212.00;;;10.78;35.33
18509;BME280;9383;50.928;12.116;2023-04-06T09:32:50;99214.22;;;10.92;35.92
18509;BME280;9383;50.928;12.116;2023-04-06T09:35:19;99207.88;;;10.96;35.31
18509;BME280;9383;50.928;12.116;2023-04-06T09:37:47;99204.19;;;11.02;35.54
18509;BME280;9383;50.928;12.116;2023-04-06T09:40:14;99203.09;;;11.07;34.91
18509;BME280;9383;50.928;12.116;2023-04-06T09:42:46;99202.84;;;11.15;35.58
18509;BME280;9383;50.928;12.116;2023-04-06T09:45:13;99199.63;;;11.32;36.79
18509;BME280;9383;50.928;12.116;2023-04-06T09:47:44;99197.25;;;11.50;35.97
18509;BME280;9383;50.928;12.116;2023-04-06T09:50:13;99192.44;;;11.61;34.75
18509;BME280;9383;50.928;12.116;2023-04-06T09:52:46;99194.91;;;11.67;33.55
18509;BME280;9383;50.928;12.116;2023-04-06T09:55:30;99194.09;;;11.65;34.01
18509;BME280;9383;50.928;12.116;2023-04-06T09:58:10;99182.63;;;11.89;34.74
18509;BME280;9383;50.928;12.116;2023-04-06T10:00:51;99183.38;;;11.92;34.86
18509;BME280;9383;50.928;12.116;2023-04-06T10:06:04;99191.81;;;11.80;32.21
18509;BME280;9383;50.928;12.116;2023-04-06T10:08:33;99182.22;;;12.00;33.47
18509;BME280;9383;50.928;12.116;2023-04-06T10:11:02;99188.03;;;12.11;32.28
18509;BME280;9383;50.928;12.116;2023-04-06T10:13:29;99175.94;;;12.28;33.23
18509;BME280;9383;50.928;12.116;2023-04-06T10:15:56;99189.41;;;12.45;34.48
18509;BME280;9383;50.928;12.116;2023-04-06T10:18:23;99177.16;;;12.65;35.48
18509;BME280;9383;50.928;12.116;2023-04-06T10:21:01;99119.41;;;12.45;35.25
18509;BME280;9383;50.928;12.116;2023-04-06T10:23:37;99172.31;;;12.75;32.93
18509;BME280;9383;50.928;12.116;2023-04-06T10:26:11;99170.59;;;12.74;31.35
18509;BME280;9383;50.928;12.116;2023-04-06T10:28:40;99168.69;;;12.77;33.11
18509;BME280;9383;50.928;12.116;2023-04-06T10:31:07;99170.63;;;12.72;32.27
18509;BME280;9383;50.928;12.116;2023-04-06T10:33:34;99169.97;;;12.67;31.17
18509;BME280;9383;50.928;12.116;2023-04-06T10:36:21;99169.22;;;12.63;32.23
18509;BME280;9383;50.928;12.116;2023-04-06T10:38:55;99169.28;;;12.62;31.57
18509;BME280;9383;50.928;12.116;2023-04-06T10:41:23;99167.94;;;12.51;31.00
18509;BME280;9383;50.928;12.116;2023-04-06T10:43:56;99165.97;;;12.33;30.18
18509;BME280;9383;50.928;12.116;2023-04-06T10:46:28;99168.41;;;12.39;32.22
18509;BME280;9383;50.928;12.116;2023-04-06T10:48:55;99162.56;;;12.29;30.04
18509;BME280;9383;50.928;12.116;2023-04-06T10:51:26;99168.75;;;12.30;29.28
18509;BME280;9383;50.928;12.116;2023-04-06T10:53:56;99158.50;;;11.95;29.19
18509;BME280;9383;50.928;12.116;2023-04-06T10:56:24;99158.88;;;12.09;31.87
18509;BME280;9383;50.928;12.116;2023-04-06T10:58:53;99152.22;;;12.21;31.81
18509;BME280;9383;50.928;12.116;2023-04-06T11:01:23;99149.72;;;12.41;32.63
18509;BME280;9383;50.928;12.116;2023-04-06T11:03:53;99144.66;;;12.57;32.83
18509;BME280;9383;50.928;12.116;2023-04-06T11:06:22;99144.03;;;12.72;33.34
18509;BME280;9383;50.928;12.116;2023-04-06T11:08:51;99141.56;;;12.90;34.17
18509;BME280;9383;50.928;12.116;2023-04-06T11:11:20;99138.03;;;12.89;31.44
18509;BME280;9383;50.928;12.116;2023-04-06T11:13:55;99132.53;;;12.94;32.07
18509;BME280;9383;50.928;12.116;2023-04-06T11:16:24;99137.28;;;12.86;32.80
18509;BME280;9383;50.928;12.116;2023-04-06T11:18:56;99128.69;;;12.79;35.04
18509;BME280;9383;50.928;12.116;2023-04-06T11:21:38;99126.97;;;12.78;33.84
18509;BME280;9383;50.928;12.116;2023-04-06T11:24:22;99127.84;;;12.78;32.88
18509;BME280;9383;50.928;12.116;2023-04-06T11:26:55;99123.22;;;12.61;31.33
18509;BME280;9383;50.928;12.116;2023-04-06T11:29:26;99119.41;;;12.22;30.05
18509;BME280;9383;50.928;12.116;2023-04-06T11:32:06;99121.97;;;12.02;30.92
18509;BME280;9383;50.928;12.116;2023-04-06T11:34:35;99119.50;;;11.72;29.66
18509;BME280;9383;50.928;12.116;2023-04-06T11:37:11;99115.47;;;11.85;30.86
18509;BME280;9383;50.928;12.116;2023-04-06T11:39:47;99120.31;;;11.74;31.16
18509;BME280;9383;50.928;12.116;2023-04-06T11:42:27;99116.16;;;11.66;30.64
18509;BME280;9383;50.928;12.116;2023-04-06T11:44:56;99113.03;;;11.79;31.32
18509;BME280;9383;50.928;12.116;2023-04-06T11:47:41;99103.63;;;11.70;30.03
18509;BME280;9383;50.928;12.116;2023-04-06T11:50:13;99112.38;;;11.48;29.62
18509;BME280;9383;50.928;12.116;2023-04-06T11:52:41;99100.16;;;11.68;31.13
18509;BME280;9383;50.928;12.116;2023-04-06T11:55:15;99099.75;;;11.79;30.84
18509;BME280;9383;50.928;12.116;2023-04-06T11:57:45;99097.09;;;11.79;32.84
18509;BME280;9383;50.928;12.116;2023-04-06T12:00:14;99104.34;;;11.50;30.21
18509;BME280;9383;50.928;12.116;2023-04-06T12:02:46;99087.13;;;11.62;31.85
18509;BME280;9383;50.928;12.116;2023-04-06T12:05:13;99098.41;;;11.67;33.03
18509;BME280;9383;50.928;12.116;2023-04-06T12:07:40;99101.03;;;11.68;32.62
18509;BME280;9383;50.928;12.116;2023-04-06T12:10:07;99099.97;;;11.73;32.56
18509;BME280;9383;50.928;12.116;2023-04-06T12:12:33;99088.97;;;11.84;33.14
18509;BME280;9383;50.928;12.116;2023-04-06T12:15:01;99092.09;;;11.95;33.96
18509;BME280;9383;50.928;12.116;2023-04-06T12:17:27;99090.09;;;12.02;32.58
18509;BME280;9383;50.928;12.116;2023-04-06T12:19:54;99082.03;;;12.03;33.77
18509;BME280;9383;50.928;12.116;2023-04-06T12:22:21;99076.56;;;12.08;32.71
18509;BME280;9383;50.928;12.116;2023-04-06T12:24:48;99084.56;;;12.06;33.32
18509;BME280;9383;50.928;12.116;2023-04-06T12:27:14;99073.22;;;12.03;34.28
18509;BME280;9383;50.928;12.116;2023-04-06T12:29:42;99078.56;;;12.01;33.35
18509;BME280;9383;50.928;12.116;2023-04-06T12:32:10;99069.56;;;12.05;33.88
18509;BME280;9383;50.928;12.116;2023-04-06T12:34:38;99067.91;;;12.03;34.68
18509;BME280;9383;50.928;12.116;2023-04-06T12:37:07;99064.47;;;11.99;34.80
18509;BME280;9383;50.928;12.116;2023-04-06T12:39:33;99070.44;;;12.06;34.21
18509;BME280;9383;50.928;12.116;2023-04-06T12:42:00;99063.28;;;12.08;35.26
18509;BME280;9383;50.928;12.116;2023-04-06T12:44:31;99068.22;;;12.17;35.57
18509;BME280;9383;50.928;12.116;2023-04-06T12:46:58;99060.88;;;12.24;35.02
18509;BME280;9383;50.928;12.116;2023-04-06T12:49:24;99058.72;;;12.34;34.93
18509;BME280;9383;50.928;12.116;2023-04-06T12:51:52;99058.47;;;12.40;33.95
18509;BME280;9383;50.928;12.116;2023-04-06T12:54:18;99055.88;;;12.38;34.40
18509;BME280;9383;50.928;12.116;2023-04-06T12:56:44;99059.81;;;12.28;34.49
18509;BME280;9383;50.928;12.116;2023-04-06T12:59:11;99043.50;;;12.15;34.31
18509;BME280;9383;50.928;12.116;2023-04-06T13:01:38;99040.41;;;12.04;33.40
18509;BME280;9383;50.928;12.116;2023-04-06T13:04:05;99035.91;;;11.82;33.66
18509;BME280;9383;50.928;12.116;2023-04-06T13:06:32;99042.47;;;11.72;34.95
18509;BME280;9383;50.928;12.116;2023-04-06T13:08:58;99040.16;;;11.62;34.90
18509;BME280;9383;50.928;12.116;2023-04-06T13:11:25;99034.22;;;11.56;33.83
18509;BME280;9383;50.928;12.116;2023-04-06T13:13:52;99040.38;;;11.58;35.10
18509;BME280;9383;50.928;12.116;2023-04-06T13:16:19;99038.44;;;11.61;33.64